sensor_id;sensor_type;location;lat;lon;timestamp;temperature;humidity
52451;DHT22;38366;53.176;6.540;2022-09-28T00:00:09;7.80;99.90
52451;DHT22;38366;53.176;6.540;2022-09-28T00:02:34;7.80;99.90
52451;DHT22;38366;53.176;6.540;2022-09-28T00:05:01;7.70;99.90
52451;DHT22;38366;53.176;6.540;2022-09-28T00:07:27;7.70;99.90
52451;DHT22;38366;53.176;6.540;2022-09-28T00:09:54;7.70;99.90
52451;DHT22;38366;53.176;6.540;2022-09-28T00:12:22;7.70;99.90
52451;DHT22;38366;53.176;6.540;2022-09-28T00:14:47;7.80;99.90
52451;DHT22;38366;53.176;6.540;2022-09-28T00:17:13;7.70;99.90
52451;DHT22;38366;53.176;6.540;2022-09-28T00:19:41;7.70;99.90
52451;DHT22;38366;53.176;6.540;2022-09-28T00:22:08;7.80;99.90
52451;DHT22;38366;53.176;6.540;2022-09-28T00:24:34;7.80;99.90
52451;DHT22;38366;53.176;6.540;2022-09-28T00:27:00;7.80;99.90
52451;DHT22;38366;53.176;6.540;2022-09-28T00:29:31;7.80;99.90
52451;DHT22;38366;53.176;6.540;2022-09-28T00:32:13;7.90;99.90
52451;DHT22;38366;53.176;6.540;2022-09-28T00:34:42;7.80;99.90
52451;DHT22;38366;53.176;6.540;2022-09-28T00:37:12;7.90;99.90
52451;DHT22;38366;53.176;6.540;2022-09-28T00:39:38;7.90;99.90
52451;DHT22;38366;53.176;6.540;2022-09-28T00:42:20;7.90;99.90
52451;DHT22;38366;53.176;6.540;2022-09-28T00:47:20;7.90;99.90
52451;DHT22;38366;53.176;6.540;2022-09-28T00:50:13;7.90;99.90
52451;DHT22;38366;53.176;6.540;2022-09-28T00:55:15;7.90;99.90
52451;DHT22;38366;53.176;6.540;2022-09-28T00:57:45;7.90;99.90
52451;DHT22;38366;53.176;6.540;2022-09-28T01:00:13;7.90;99.90
52451;DHT22;38366;53.176;6.540;2022-09-28T01:02:39;7.90;99.90
52451;DHT22;38366;53.176;6.540;2022-09-28T01:05:05;7.90;99.90
52451;DHT22;38366;53.176;6.540;2022-09-28T01:07:32;7.90;99.90
52451;DHT22;38366;53.176;6.540;2022-09-28T01:09:59;8.40;99.90
52451;DHT22;38366;53.176;6.540;2022-09-28T01:12:25;7.80;99.90
52451;DHT22;38366;53.176;6.540;2022-09-28T01:14:51;7.80;99.90
52451;DHT22;38366;53.176;6.540;2022-09-28T01:17:31;7.70;99.90
52451;DHT22;38366;53.176;6.540;2022-09-28T01:28:42;7.50;99.90
52451;DHT22;38366;53.176;6.540;2022-09-28T01:31:14;7.50;99.90
52451;DHT22;38366;53.176;6.540;2022-09-28T01:33:59;7.40;99.90
52451;DHT22;38366;53.176;6.540;2022-09-28T01:36:31;7.40;99.90
52451;DHT22;38366;53.176;6.540;2022-09-28T01:39:08;7.40;99.90
52451;DHT22;38366;53.176;6.540;2022-09-28T01:41:37;7.40;99.90
52451;DHT22;38366;53.176;6.540;2022-09-28T01:44:07;7.40;99.90
52451;DHT22;38366;53.176;6.540;2022-09-28T01:46:44;7.30;99.90
52451;DHT22;38366;53.176;6.540;2022-09-28T01:49:20;7.30;99.90
52451;DHT22;38366;53.176;6.540;2022-09-28T01:51:54;7.30;99.90
52451;DHT22;38366;53.176;6.540;2022-09-28T01:54:35;7.30;99.90
52451;DHT22;38366;53.176;6.540;2022-09-28T01:57:16;7.20;99.90
52451;DHT22;38366;53.176;6.540;2022-09-28T01:59:54;7.20;99.90
52451;DHT22;38366;53.176;6.540;2022-09-28T02:02:37;7.40;99.90
52451;DHT22;38366;53.176;6.540;2022-09-28T02:05:11;7.10;99.90
52451;DHT22;38366;53.176;6.540;2022-09-28T02:08:01;7.10;99.90
52451;DHT22;38366;53.176;6.540;2022-09-28T02:10:34;7.00;99.90
52451;DHT22;38366;53.176;6.540;2022-09-28T02:13:15;6.90;99.90
52451;DHT22;38366;53.176;6.540;2022-09-28T02:15:50;7.00;99.90
52451;DHT22;38366;53.176;6.540;2022-09-28T02:18:18;7.00;99.90
52451;DHT22;38366;53.176;6.540;2022-09-28T02:20:55;7.10;99.90
52451;DHT22;38366;53.176;6.540;2022-09-28T02:23:22;7.10;99.90
52451;DHT22;38366;53.176;6.540;2022-09-28T02:25:54;7.20;99.90
52451;DHT22;38366;53.176;6.540;2022-09-28T02:28:23;7.20;99.90
52451;DHT22;38366;53.176;6.540;2022-09-28T02:30:49;7.30;99.90
52451;DHT22;38366;53.176;6.540;2022-09-28T02:33:19;7.30;99.90
52451;DHT22;38366;53.176;6.540;2022-09-28T02:35:46;7.80;99.90
52451;DHT22;38366;53.176;6.540;2022-09-28T02:38:13;8.00;99.90
52451;DHT22;38366;53.176;6.540;2022-09-28T02:40:39;7.40;99.90
52451;DHT22;38366;53.176;6.540;2022-09-28T02:46:10;7.40;99.90
52451;DHT22;38366;53.176;6.540;2022-09-28T02:55:02;7.30;99.90
52451;DHT22;38366;53.176;6.540;2022-09-28T03:00:07;7.20;99.90
52451;DHT22;38366;53.176;6.540;2022-09-28T03:02:58;7.20;99.90
52451;DHT22;38366;53.176;6.540;2022-09-28T03:05:41;7.10;99.90
52451;DHT22;38366;53.176;6.540;2022-09-28T03:08:26;7.10;99.90
52451;DHT22;38366;53.176;6.540;2022-09-28T03:11:17;7.20;99.90
52451;DHT22;38366;53.176;6.540;2022-09-28T03:13:53;7.00;99.90
52451;DHT22;38366;53.176;6.540;2022-09-28T03:16:20;7.10;99.90
52451;DHT22;38366;53.176;6.540;2022-09-28T03:18:45;7.10;99.90
52451;DHT22;38366;53.176;6.540;2022-09-28T03:21:12;6.90;99.90
52451;DHT22;38366;53.176;6.540;2022-09-28T03:23:39;7.30;99.90
52451;DHT22;38366;53.176;6.540;2022-09-28T03:26:11;6.80;99.90
52451;DHT22;38366;53.176;6.540;2022-09-28T03:28:37;6.70;99.90
52451;DHT22;38366;53.176;6.540;2022-09-28T03:31:03;6.60;99.90
52451;DHT22;38366;53.176;6.540;2022-09-28T03:33:29;6.60;99.90
52451;DHT22;38366;53.176;6.540;2022-09-28T03:35:54;6.60;99.90
52451;DHT22;38366;53.176;6.540;2022-09-28T03:38:20;6.50;99.90
52451;DHT22;38366;53.176;6.540;2022-09-28T03:40:54;6.50;99.90
52451;DHT22;38366;53.176;6.540;2022-09-28T03:43:20;6.50;99.90
52451;DHT22;38366;53.176;6.540;2022-09-28T03:45:57;6.40;99.90
52451;DHT22;38366;53.176;6.540;2022-09-28T03:48:25;6.50;99.90
52451;DHT22;38366;53.176;6.540;2022-09-28T03:50:52;6.60;99.90
52451;DHT22;38366;53.176;6.540;2022-09-28T03:53:19;6.40;99.90
52451;DHT22;38366;53.176;6.540;2022-09-28T03:55:44;6.40;99.90
52451;DHT22;38366;53.176;6.540;2022-09-28T03:58:10;6.40;99.90
52451;DHT22;38366;53.176;6.540;2022-09-28T04:00:37;6.40;99.90
52451;DHT22;38366;53.176;6.540;2022-09-28T04:03:03;6.40;99.90
52451;DHT22;38366;53.176;6.540;2022-09-28T04:05:29;6.40;99.90
52451;DHT22;38366;53.176;6.540;2022-09-28T04:07:55;6.40;99.90
52451;DHT22;38366;53.176;6.540;2022-09-28T04:10:22;6.40;99.90
52451;DHT22;38366;53.176;6.540;2022-09-28T04:12:48;6.50;99.90
52451;DHT22;38366;53.176;6.540;2022-09-28T04:15:15;6.40;99.90
52451;DHT22;38366;53.176;6.540;2022-09-28T04:17:41;6.40;99.90
52451;DHT22;38366;53.176;6.540;2022-09-28T04:20:07;6.30;99.90
52451;DHT22;38366;53.176;6.540;2022-09-28T04:22:33;6.30;99.90
52451;DHT22;38366;53.176;6.540;2022-09-28T04:25:03;6.30;99.90
52451;DHT22;38366;53.176;6.540;2022-09-28T04:27:29;6.30;99.90
52451;DHT22;38366;53.176;6.540;2022-09-28T04:30:13;6.30;99.90
52451;DHT22;38366;53.176;6.540;2022-09-28T04:32:39;6.20;99.90
52451;DHT22;38366;53.176;6.540;2022-09-28T04:35:05;6.20;99.90
52451;DHT22;38366;53.176;6.540;2022-09-28T04:37:31;6.20;99.90
52451;DHT22;38366;53.176;6.540;2022-09-28T04:39:56;6.20;99.90
52451;DHT22;38366;53.176;6.540;2022-09-28T04:42:22;6.20;99.90
52451;DHT22;38366;53.176;6.540;2022-09-28T04:44:47;6.10;99.90
52451;DHT22;38366;53.176;6.540;2022-09-28T04:47:13;6.00;99.90
52451;DHT22;38366;53.176;6.540;2022-09-28T04:49:39;6.00;99.90
52451;DHT22;38366;53.176;6.540;2022-09-28T04:52:05;6.00;99.90
52451;DHT22;38366;53.176;6.540;2022-09-28T04:54:31;6.00;99.90
52451;DHT22;38366;53.176;6.540;2022-09-28T04:56:57;6.00;99.90
52451;DHT22;38366;53.176;6.540;2022-09-28T04:59:23;6.00;99.90
52451;DHT22;38366;53.176;6.540;2022-09-28T05:01:48;6.00;99.90
52451;DHT22;38366;53.176;6.540;2022-09-28T05:04:14;6.00;99.90
52451;DHT22;38366;53.176;6.540;2022-09-28T05:06:40;6.00;99.90
52451;DHT22;38366;53.176;6.540;2022-09-28T05:09:06;6.00;99.90
52451;DHT22;38366;53.176;6.540;2022-09-28T05:11:33;6.00;99.90
52451;DHT22;38366;53.176;6.540;2022-09-28T05:13:59;6.00;99.90
52451;DHT22;38366;53.176;6.540;2022-09-28T05:16:25;6.00;99.90
52451;DHT22;38366;53.176;6.540;2022-09-28T05:18:55;6.00;99.90
52451;DHT22;38366;53.176;6.540;2022-09-28T05:21:21;6.10;99.90
52451;DHT22;38366;53.176;6.540;2022-09-28T05:23:50;6.10;99.90
52451;DHT22;38366;53.176;6.540;2022-09-28T05:26:16;6.30;99.90
52451;DHT22;38366;53.176;6.540;2022-09-28T05:28:41;6.10;99.90
52451;DHT22;38366;53.176;6.540;2022-09-28T05:31:07;6.10;99.90
52451;DHT22;38366;53.176;6.540;2022-09-28T05:33:33;6.10;99.90
52451;DHT22;38366;53.176;6.540;2022-09-28T05:35:59;6.20;99.90
52451;DHT22;38366;53.176;6.540;2022-09-28T05:38:25;6.20;99.90
52451;DHT22;38366;53.176;6.540;2022-09-28T05:40:51;6.60;99.90
52451;DHT22;38366;53.176;6.540;2022-09-28T05:43:17;6.20;99.90
52451;DHT22;38366;53.176;6.540;2022-09-28T05:45:42;6.20;99.90
52451;DHT22;38366;53.176;6.540;2022-09-28T05:48:08;6.20;99.90
52451;DHT22;38366;53.176;6.540;2022-09-28T05:50:34;6.30;99.90
52451;DHT22;38366;53.176;6.540;2022-09-28T05:53:05;6.40;99.90
52451;DHT22;38366;53.176;6.540;2022-09-28T05:55:31;6.30;99.90
52451;DHT22;38366;53.176;6.540;2022-09-28T05:58:01;6.30;99.90
52451;DHT22;38366;53.176;6.540;2022-09-28T06:00:28;6.30;99.90
52451;DHT22;38366;53.176;6.540;2022-09-28T06:02:54;6.30;99.90
52451;DHT22;38366;53.176;6.540;2022-09-28T06:05:20;6.80;99.90
52451;DHT22;38366;53.176;6.540;2022-09-28T06:07:46;6.40;99.90
52451;DHT22;38366;53.176;6.540;2022-09-28T06:10:11;6.30;99.90
52451;DHT22;38366;53.176;6.540;2022-09-28T06:12:37;6.40;99.90
52451;DHT22;38366;53.176;6.540;2022-09-28T06:15:03;6.40;99.90
52451;DHT22;38366;53.176;6.540;2022-09-28T06:17:29;6.40;99.90
52451;DHT22;38366;53.176;6.540;2022-09-28T06:19:54;6.50;99.90
52451;DHT22;38366;53.176;6.540;2022-09-28T06:22:20;6.80;99.90
52451;DHT22;38366;53.176;6.540;2022-09-28T06:24:46;6.70;99.90
52451;DHT22;38366;53.176;6.540;2022-09-28T06:27:11;6.80;99.90
52451;DHT22;38366;53.176;6.540;2022-09-28T06:29:37;6.90;99.90
52451;DHT22;38366;53.176;6.540;2022-09-28T06:32:03;7.00;99.90
52451;DHT22;38366;53.176;6.540;2022-09-28T06:34:28;7.00;99.90
52451;DHT22;38366;53.176;6.540;2022-09-28T06:36:54;7.10;99.90
52451;DHT22;38366;53.176;6.540;2022-09-28T06:39:20;7.20;99.90
52451;DHT22;38366;53.176;6.540;2022-09-28T06:41:45;7.40;99.90
52451;DHT22;38366;53.176;6.540;2022-09-28T06:44:14;7.30;99.90
52451;DHT22;38366;53.176;6.540;2022-09-28T06:46:39;7.30;99.90
52451;DHT22;38366;53.176;6.540;2022-09-28T06:49:05;8.30;99.90
52451;DHT22;38366;53.176;6.540;2022-09-28T06:51:34;7.40;99.90
52451;DHT22;38366;53.176;6.540;2022-09-28T06:54:00;7.40;99.90
52451;DHT22;38366;53.176;6.540;2022-09-28T06:56:25;7.50;99.90
52451;DHT22;38366;53.176;6.540;2022-09-28T06:58:52;7.40;99.90
52451;DHT22;38366;53.176;6.540;2022-09-28T07:01:18;7.50;99.90
52451;DHT22;38366;53.176;6.540;2022-09-28T07:03:44;7.50;99.90
52451;DHT22;38366;53.176;6.540;2022-09-28T07:06:11;7.50;99.90
52451;DHT22;38366;53.176;6.540;2022-09-28T07:08:37;7.60;99.90
52451;DHT22;38366;53.176;6.540;2022-09-28T07:11:06;7.60;99.90
52451;DHT22;38366;53.176;6.540;2022-09-28T07:13:32;7.70;99.90
52451;DHT22;38366;53.176;6.540;2022-09-28T07:15:58;7.80;99.90
52451;DHT22;38366;53.176;6.540;2022-09-28T07:18:24;7.80;99.90
52451;DHT22;38366;53.176;6.540;2022-09-28T07:20:51;7.90;99.90
52451;DHT22;38366;53.176;6.540;2022-09-28T07:23:17;8.00;99.90
52451;DHT22;38366;53.176;6.540;2022-09-28T07:25:46;8.00;99.90
52451;DHT22;38366;53.176;6.540;2022-09-28T07:28:13;8.10;99.90
52451;DHT22;38366;53.176;6.540;2022-09-28T07:30:39;8.20;99.90
52451;DHT22;38366;53.176;6.540;2022-09-28T07:33:07;8.30;99.90
52451;DHT22;38366;53.176;6.540;2022-09-28T07:35:34;8.30;99.90
52451;DHT22;38366;53.176;6.540;2022-09-28T07:38:04;8.50;99.90
52451;DHT22;38366;53.176;6.540;2022-09-28T07:40:32;8.40;99.90
52451;DHT22;38366;53.176;6.540;2022-09-28T07:43:17;8.40;99.90
52451;DHT22;38366;53.176;6.540;2022-09-28T07:45:47;8.70;99.90
52451;DHT22;38366;53.176;6.540;2022-09-28T07:48:14;8.80;99.90
52451;DHT22;38366;53.176;6.540;2022-09-28T07:51:01;9.30;99.90
52451;DHT22;38366;53.176;6.540;2022-09-28T07:53:27;9.10;99.90
52451;DHT22;38366;53.176;6.540;2022-09-28T07:56:00;9.20;99.90
52451;DHT22;38366;53.176;6.540;2022-09-28T07:58:28;9.30;99.90
52451;DHT22;38366;53.176;6.540;2022-09-28T08:00:57;9.50;99.90
52451;DHT22;38366;53.176;6.540;2022-09-28T08:03:26;10.10;99.90
52451;DHT22;38366;53.176;6.540;2022-09-28T08:06:02;10.40;99.90
52451;DHT22;38366;53.176;6.540;2022-09-28T08:08:28;10.70;99.90
52451;DHT22;38366;53.176;6.540;2022-09-28T08:10:55;10.90;99.90
52451;DHT22;38366;53.176;6.540;2022-09-28T08:13:21;10.90;99.90
52451;DHT22;38366;53.176;6.540;2022-09-28T08:15:53;11.00;99.90
52451;DHT22;38366;53.176;6.540;2022-09-28T08:18:19;11.20;99.90
52451;DHT22;38366;53.176;6.540;2022-09-28T08:20:46;11.50;99.90
52451;DHT22;38366;53.176;6.540;2022-09-28T08:23:30;12.00;99.90
52451;DHT22;38366;53.176;6.540;2022-09-28T08:25:56;12.50;99.90
52451;DHT22;38366;53.176;6.540;2022-09-28T08:28:22;13.20;99.90
52451;DHT22;38366;53.176;6.540;2022-09-28T08:30:48;13.80;99.90
52451;DHT22;38366;53.176;6.540;2022-09-28T08:33:16;14.20;99.90
52451;DHT22;38366;53.176;6.540;2022-09-28T08:35:43;14.10;99.90
52451;DHT22;38366;53.176;6.540;2022-09-28T08:38:09;14.00;99.90
52451;DHT22;38366;53.176;6.540;2022-09-28T08:45:58;14.30;99.90
52451;DHT22;38366;53.176;6.540;2022-09-28T08:48:29;15.00;99.90
52451;DHT22;38366;53.176;6.540;2022-09-28T08:51:25;16.00;99.90
52451;DHT22;38366;53.176;6.540;2022-09-28T08:54:05;16.80;99.90
52451;DHT22;38366;53.176;6.540;2022-09-28T08:59:50;17.80;99.90
52451;DHT22;38366;53.176;6.540;2022-09-28T09:02:34;18.20;99.90
52451;DHT22;38366;53.176;6.540;2022-09-28T09:05:03;18.80;99.90
52451;DHT22;38366;53.176;6.540;2022-09-28T09:15:56;20.20;99.90
52451;DHT22;38366;53.176;6.540;2022-09-28T09:18:47;21.00;99.90
52451;DHT22;38366;53.176;6.540;2022-09-28T09:24:22;21.10;99.90
52451;DHT22;38366;53.176;6.540;2022-09-28T09:33:00;20.10;99.90
52451;DHT22;38366;53.176;6.540;2022-09-28T09:40:52;19.30;99.90
52451;DHT22;38366;53.176;6.540;2022-09-28T09:47:04;20.30;99.90
52451;DHT22;38366;53.176;6.540;2022-09-28T09:49:39;20.70;99.90
52451;DHT22;38366;53.176;6.540;2022-09-28T09:55:02;20.90;99.90
52451;DHT22;38366;53.176;6.540;2022-09-28T09:57:47;21.40;99.90
52451;DHT22;38366;53.176;6.540;2022-09-28T10:00:16;21.40;99.90
52451;DHT22;38366;53.176;6.540;2022-09-28T10:02:46;20.90;99.90
52451;DHT22;38366;53.176;6.540;2022-09-28T10:10:33;18.90;99.90
52451;DHT22;38366;53.176;6.540;2022-09-28T10:13:00;18.30;99.90
52451;DHT22;38366;53.176;6.540;2022-09-28T10:15:30;18.10;99.90
52451;DHT22;38366;53.176;6.540;2022-09-28T10:17:59;18.10;99.90
52451;DHT22;38366;53.176;6.540;2022-09-28T10:20:32;18.10;99.90
52451;DHT22;38366;53.176;6.540;2022-09-28T10:22:59;17.90;99.90
52451;DHT22;38366;53.176;6.540;2022-09-28T10:25:30;17.70;99.90
52451;DHT22;38366;53.176;6.540;2022-09-28T10:27:59;17.40;99.90
52451;DHT22;38366;53.176;6.540;2022-09-28T10:30:25;17.40;99.90
52451;DHT22;38366;53.176;6.540;2022-09-28T10:32:53;17.30;99.90
52451;DHT22;38366;53.176;6.540;2022-09-28T10:35:30;17.20;99.90
52451;DHT22;38366;53.176;6.540;2022-09-28T10:38:21;17.20;99.90
52451;DHT22;38366;53.176;6.540;2022-09-28T10:41:00;17.40;99.90
52451;DHT22;38366;53.176;6.540;2022-09-28T10:43:29;17.70;99.90
52451;DHT22;38366;53.176;6.540;2022-09-28T10:46:10;17.80;99.90
52451;DHT22;38366;53.176;6.540;2022-09-28T10:51:14;17.70;99.90
52451;DHT22;38366;53.176;6.540;2022-09-28T10:53:40;17.70;99.90
52451;DHT22;38366;53.176;6.540;2022-09-28T10:56:35;17.60;99.90
52451;DHT22;38366;53.176;6.540;2022-09-28T10:59:04;17.80;99.90
52451;DHT22;38366;53.176;6.540;2022-09-28T11:01:46;18.60;99.90
52451;DHT22;38366;53.176;6.540;2022-09-28T11:04:19;19.90;99.90
52451;DHT22;38366;53.176;6.540;2022-09-28T11:06:46;21.00;99.90
52451;DHT22;38366;53.176;6.540;2022-09-28T11:09:29;21.90;99.90
52451;DHT22;38366;53.176;6.540;2022-09-28T11:12:00;21.70;98.90
52451;DHT22;38366;53.176;6.540;2022-09-28T11:14:35;21.20;99.90
52451;DHT22;38366;53.176;6.540;2022-09-28T11:17:34;21.00;99.90
52451;DHT22;38366;53.176;6.540;2022-09-28T11:20:41;21.80;99.90
52451;DHT22;38366;53.176;6.540;2022-09-28T11:23:25;22.80;98.90
52451;DHT22;38366;53.176;6.540;2022-09-28T11:25:58;23.20;98.30
52451;DHT22;38366;53.176;6.540;2022-09-28T11:28:30;23.80;96.90
52451;DHT22;38366;53.176;6.540;2022-09-28T11:30:57;24.30;97.10
52451;DHT22;38366;53.176;6.540;2022-09-28T11:33:41;23.70;95.40
52451;DHT22;38366;53.176;6.540;2022-09-28T11:49:59;21.10;96.00
52451;DHT22;38366;53.176;6.540;2022-09-28T11:52:42;20.60;97.10
52451;DHT22;38366;53.176;6.540;2022-09-28T11:57:54;19.60;99.90
52451;DHT22;38366;53.176;6.540;2022-09-28T12:00:21;19.20;99.90
52451;DHT22;38366;53.176;6.540;2022-09-28T12:02:57;19.10;99.90
52451;DHT22;38366;53.176;6.540;2022-09-28T12:05:33;18.90;99.90
52451;DHT22;38366;53.176;6.540;2022-09-28T12:08:21;18.80;99.90
52451;DHT22;38366;53.176;6.540;2022-09-28T12:13:32;18.60;99.90
52451;DHT22;38366;53.176;6.540;2022-09-28T12:16:06;19.40;99.90
52451;DHT22;38366;53.176;6.540;2022-09-28T12:18:37;20.40;99.90
52451;DHT22;38366;53.176;6.540;2022-09-28T12:23:56;21.00;99.90
52451;DHT22;38366;53.176;6.540;2022-09-28T12:26:43;21.40;99.90
52451;DHT22;38366;53.176;6.540;2022-09-28T12:29:21;20.80;98.80
52451;DHT22;38366;53.176;6.540;2022-09-28T12:34:27;20.30;99.90
52451;DHT22;38366;53.176;6.540;2022-09-28T12:39:50;19.80;99.90
52451;DHT22;38366;53.176;6.540;2022-09-28T12:45:20;18.80;99.90
52451;DHT22;38366;53.176;6.540;2022-09-28T12:50:46;17.60;99.90
52451;DHT22;38366;53.176;6.540;2022-09-28T12:56:06;17.00;99.90
52451;DHT22;38366;53.176;6.540;2022-09-28T13:01:49;16.70;99.90
52451;DHT22;38366;53.176;6.540;2022-09-28T13:04:43;16.70;99.90
52451;DHT22;38366;53.176;6.540;2022-09-28T13:07:18;16.60;99.90
52451;DHT22;38366;53.176;6.540;2022-09-28T13:12:53;16.50;99.90
52451;DHT22;38366;53.176;6.540;2022-09-28T13:18:32;16.50;99.90
52451;DHT22;38366;53.176;6.540;2022-09-28T13:21:21;16.60;99.90
52451;DHT22;38366;53.176;6.540;2022-09-28T13:23:49;16.70;99.90
52451;DHT22;38366;53.176;6.540;2022-09-28T13:26:23;16.70;99.90
52451;DHT22;38366;53.176;6.540;2022-09-28T13:28:51;16.70;99.90
52451;DHT22;38366;53.176;6.540;2022-09-28T13:31:24;16.70;99.90
52451;DHT22;38366;53.176;6.540;2022-09-28T13:33:59;16.70;99.90
52451;DHT22;38366;53.176;6.540;2022-09-28T13:39:00;16.80;99.90
52451;DHT22;38366;53.176;6.540;2022-09-28T13:41:46;16.90;99.90
52451;DHT22;38366;53.176;6.540;2022-09-28T13:44:17;17.00;99.90
52451;DHT22;38366;53.176;6.540;2022-09-28T13:52:51;17.20;99.90
52451;DHT22;38366;53.176;6.540;2022-09-28T13:58:25;17.40;99.90
52451;DHT22;38366;53.176;6.540;2022-09-28T14:00:58;17.50;99.80
52451;DHT22;38366;53.176;6.540;2022-09-28T14:06:24;17.30;99.80
52451;DHT22;38366;53.176;6.540;2022-09-28T14:11:59;17.50;99.90
52451;DHT22;38366;53.176;6.540;2022-09-28T14:19:52;17.30;99.90
52451;DHT22;38366;53.176;6.540;2022-09-28T14:22:28;17.30;99.90
52451;DHT22;38366;53.176;6.540;2022-09-28T14:25:24;17.30;99.90
52451;DHT22;38366;53.176;6.540;2022-09-28T14:38:28;16.70;99.90
52451;DHT22;38366;53.176;6.540;2022-09-28T14:41:35;16.80;99.90
52451;DHT22;38366;53.176;6.540;2022-09-28T14:46:53;16.60;99.90
52451;DHT22;38366;53.176;6.540;2022-09-28T14:54:40;16.40;99.90
52451;DHT22;38366;53.176;6.540;2022-09-28T14:57:18;16.50;99.90
52451;DHT22;38366;53.176;6.540;2022-09-28T14:59:45;16.50;99.90
52451;DHT22;38366;53.176;6.540;2022-09-28T15:07:29;16.70;99.90
52451;DHT22;38366;53.176;6.540;2022-09-28T15:10:24;16.70;99.90
52451;DHT22;38366;53.176;6.540;2022-09-28T15:12:50;16.70;99.90
52451;DHT22;38366;53.176;6.540;2022-09-28T15:15:33;16.70;99.90
52451;DHT22;38366;53.176;6.540;2022-09-28T15:20:53;16.60;99.90
52451;DHT22;38366;53.176;6.540;2022-09-28T15:23:25;16.50;99.90
52451;DHT22;38366;53.176;6.540;2022-09-28T15:25:52;16.50;99.90
52451;DHT22;38366;53.176;6.540;2022-09-28T15:28:20;16.40;99.90
52451;DHT22;38366;53.176;6.540;2022-09-28T15:30:56;16.40;99.90
52451;DHT22;38366;53.176;6.540;2022-09-28T15:36:17;16.30;99.90
52451;DHT22;38366;53.176;6.540;2022-09-28T15:41:50;16.20;99.90
52451;DHT22;38366;53.176;6.540;2022-09-28T15:44:31;16.10;99.90
52451;DHT22;38366;53.176;6.540;2022-09-28T15:47:26;16.10;99.90
52451;DHT22;38366;53.176;6.540;2022-09-28T15:49:56;15.90;99.90
52451;DHT22;38366;53.176;6.540;2022-09-28T15:52:32;15.80;99.90
52451;DHT22;38366;53.176;6.540;2022-09-28T15:55:11;15.80;99.90
52451;DHT22;38366;53.176;6.540;2022-09-28T15:57:41;15.60;99.90
52451;DHT22;38366;53.176;6.540;2022-09-28T16:00:27;15.50;99.90
52451;DHT22;38366;53.176;6.540;2022-09-28T16:03:21;15.30;99.90
52451;DHT22;38366;53.176;6.540;2022-09-28T16:08:36;14.90;99.90
52451;DHT22;38366;53.176;6.540;2022-09-28T16:11:13;14.70;99.90
52451;DHT22;38366;53.176;6.540;2022-09-28T16:16:28;14.50;99.90
52451;DHT22;38366;53.176;6.540;2022-09-28T16:18:57;14.60;99.90
52451;DHT22;38366;53.176;6.540;2022-09-28T16:21:34;14.50;99.90
52451;DHT22;38366;53.176;6.540;2022-09-28T16:24:03;14.40;99.90
52451;DHT22;38366;53.176;6.540;2022-09-28T16:26:35;14.40;99.90
52451;DHT22;38366;53.176;6.540;2022-09-28T16:29:28;14.30;99.90
52451;DHT22;38366;53.176;6.540;2022-09-28T16:35:21;14.20;99.90
52451;DHT22;38366;53.176;6.540;2022-09-28T16:38:00;14.10;99.90
52451;DHT22;38366;53.176;6.540;2022-09-28T16:40:27;14.00;99.90
52451;DHT22;38366;53.176;6.540;2022-09-28T16:42:55;14.10;99.90
52451;DHT22;38366;53.176;6.540;2022-09-28T16:45:22;14.10;99.90
52451;DHT22;38366;53.176;6.540;2022-09-28T16:47:48;14.00;99.90
52451;DHT22;38366;53.176;6.540;2022-09-28T16:50:21;13.90;99.90
52451;DHT22;38366;53.176;6.540;2022-09-28T16:52:49;13.80;99.90
52451;DHT22;38366;53.176;6.540;2022-09-28T16:55:39;13.80;99.90
52451;DHT22;38366;53.176;6.540;2022-09-28T16:58:05;13.70;99.90
52451;DHT22;38366;53.176;6.540;2022-09-28T17:00:31;13.60;99.90
52451;DHT22;38366;53.176;6.540;2022-09-28T17:02:57;13.40;99.90
52451;DHT22;38366;53.176;6.540;2022-09-28T17:05:22;13.30;99.90
52451;DHT22;38366;53.176;6.540;2022-09-28T17:07:59;13.30;99.90
52451;DHT22;38366;53.176;6.540;2022-09-28T17:10:34;13.30;99.90
52451;DHT22;38366;53.176;6.540;2022-09-28T17:13:00;13.30;99.90
52451;DHT22;38366;53.176;6.540;2022-09-28T17:15:26;13.20;99.90
52451;DHT22;38366;53.176;6.540;2022-09-28T17:17:52;13.10;99.90
52451;DHT22;38366;53.176;6.540;2022-09-28T17:20:26;13.00;99.90
52451;DHT22;38366;53.176;6.540;2022-09-28T17:22:53;13.00;99.90
52451;DHT22;38366;53.176;6.540;2022-09-28T17:25:21;12.80;99.90
52451;DHT22;38366;53.176;6.540;2022-09-28T17:27:47;12.80;99.90
52451;DHT22;38366;53.176;6.540;2022-09-28T17:30:14;12.70;99.90
52451;DHT22;38366;53.176;6.540;2022-09-28T17:32:40;12.60;99.90
52451;DHT22;38366;53.176;6.540;2022-09-28T17:35:15;12.50;99.90
52451;DHT22;38366;53.176;6.540;2022-09-28T17:37:41;12.40;99.90
52451;DHT22;38366;53.176;6.540;2022-09-28T17:40:23;12.30;99.90
52451;DHT22;38366;53.176;6.540;2022-09-28T17:42:49;12.30;99.90
52451;DHT22;38366;53.176;6.540;2022-09-28T17:45:16;12.20;99.90
52451;DHT22;38366;53.176;6.540;2022-09-28T17:47:43;12.20;99.90
52451;DHT22;38366;53.176;6.540;2022-09-28T17:50:13;12.20;99.90
52451;DHT22;38366;53.176;6.540;2022-09-28T17:52:40;12.10;99.90
52451;DHT22;38366;53.176;6.540;2022-09-28T17:55:06;12.10;99.90
52451;DHT22;38366;53.176;6.540;2022-09-28T17:57:32;12.00;99.90
52451;DHT22;38366;53.176;6.540;2022-09-28T17:59:58;12.00;99.90
52451;DHT22;38366;53.176;6.540;2022-09-28T18:02:23;11.90;99.90
52451;DHT22;38366;53.176;6.540;2022-09-28T18:04:49;11.90;99.90
52451;DHT22;38366;53.176;6.540;2022-09-28T18:07:15;11.90;99.90
52451;DHT22;38366;53.176;6.540;2022-09-28T18:09:41;11.80;99.90
52451;DHT22;38366;53.176;6.540;2022-09-28T18:12:07;11.80;99.90
52451;DHT22;38366;53.176;6.540;2022-09-28T18:14:33;11.70;99.90
52451;DHT22;38366;53.176;6.540;2022-09-28T18:17:00;11.70;99.90
52451;DHT22;38366;53.176;6.540;2022-09-28T18:19:26;11.60;99.90
52451;DHT22;38366;53.176;6.540;2022-09-28T18:21:51;11.60;99.90
52451;DHT22;38366;53.176;6.540;2022-09-28T18:24:17;11.60;99.90
52451;DHT22;38366;53.176;6.540;2022-09-28T18:26:43;11.60;99.90
52451;DHT22;38366;53.176;6.540;2022-09-28T18:29:08;11.50;99.90
52451;DHT22;38366;53.176;6.540;2022-09-28T18:31:35;11.50;99.90
52451;DHT22;38366;53.176;6.540;2022-09-28T18:34:01;11.50;99.90
52451;DHT22;38366;53.176;6.540;2022-09-28T18:36:31;11.40;99.90
52451;DHT22;38366;53.176;6.540;2022-09-28T18:39:00;11.40;99.90
52451;DHT22;38366;53.176;6.540;2022-09-28T18:41:26;11.30;99.90
52451;DHT22;38366;53.176;6.540;2022-09-28T18:43:52;11.30;99.90
52451;DHT22;38366;53.176;6.540;2022-09-28T18:46:26;11.30;99.90
52451;DHT22;38366;53.176;6.540;2022-09-28T18:48:53;11.20;99.90
52451;DHT22;38366;53.176;6.540;2022-09-28T18:51:19;11.10;99.90
52451;DHT22;38366;53.176;6.540;2022-09-28T18:53:45;11.10;99.90
52451;DHT22;38366;53.176;6.540;2022-09-28T18:56:13;11.00;99.90
52451;DHT22;38366;53.176;6.540;2022-09-28T18:58:41;11.00;99.90
52451;DHT22;38366;53.176;6.540;2022-09-28T19:01:09;11.00;99.90